sensor_id;sensor_type;location;lat;lon;timestamp;P1;durP1;ratioP1;P2;durP2;ratioP2
66437;SDS011;54537;47.972;11.662;2023-07-13T00:01:25;7.97;;;2.90;;
66437;SDS011;54537;47.972;11.662;2023-07-13T00:03:51;11.90;;;3.40;;
66437;SDS011;54537;47.972;11.662;2023-07-13T00:06:18;9.10;;;3.63;;
66437;SDS011;54537;47.972;11.662;2023-07-13T00:08:46;7.45;;;3.45;;
66437;SDS011;54537;47.972;11.662;2023-07-13T00:11:15;5.45;;;3.08;;
66437;SDS011;54537;47.972;11.662;2023-07-13T00:13:42;8.13;;;3.20;;
66437;SDS011;54537;47.972;11.662;2023-07-13T00:16:10;8.60;;;3.20;;
66437;SDS011;54537;47.972;11.662;2023-07-13T00:18:39;8.07;;;3.60;;
66437;SDS011;54537;47.972;11.662;2023-07-13T00:21:06;5.80;;;3.53;;
66437;SDS011;54537;47.972;11.662;2023-07-13T00:23:32;6.32;;;3.22;;
66437;SDS011;54537;47.972;11.662;2023-07-13T00:25:59;7.07;;;2.85;;
66437;SDS011;54537;47.972;11.662;2023-07-13T00:28:28;6.20;;;3.03;;
66437;SDS011;54537;47.972;11.662;2023-07-13T00:30:54;8.02;;;3.08;;
66437;SDS011;54537;47.972;11.662;2023-07-13T00:33:21;8.40;;;3.75;;
66437;SDS011;54537;47.972;11.662;2023-07-13T00:35:48;5.78;;;3.10;;
66437;SDS011;54537;47.972;11.662;2023-07-13T00:38:14;6.65;;;3.40;;
66437;SDS011;54537;47.972;11.662;2023-07-13T00:40:41;7.10;;;3.00;;
66437;SDS011;54537;47.972;11.662;2023-07-13T00:43:09;6.30;;;3.00;;
66437;SDS011;54537;47.972;11.662;2023-07-13T00:48:38;7.43;;;2.90;;
66437;SDS011;54537;47.972;11.662;2023-07-13T00:51:05;7.03;;;2.92;;
66437;SDS011;54537;47.972;11.662;2023-07-13T00:53:32;7.53;;;3.33;;
66437;SDS011;54537;47.972;11.662;2023-07-13T00:55:59;6.13;;;2.63;;
66437;SDS011;54537;47.972;11.662;2023-07-13T00:58:26;5.28;;;2.90;;
66437;SDS011;54537;47.972;11.662;2023-07-13T01:00:53;8.25;;;2.45;;
66437;SDS011;54537;47.972;11.662;2023-07-13T01:03:21;4.65;;;2.28;;
66437;SDS011;54537;47.972;11.662;2023-07-13T01:05:48;4.32;;;2.25;;
66437;SDS011;54537;47.972;11.662;2023-07-13T01:08:16;5.65;;;2.13;;
66437;SDS011;54537;47.972;11.662;2023-07-13T01:10:50;5.95;;;2.40;;
66437;SDS011;54537;47.972;11.662;2023-07-13T01:13:17;6.65;;;2.83;;
66437;SDS011;54537;47.972;11.662;2023-07-13T01:15:45;4.97;;;2.72;;
66437;SDS011;54537;47.972;11.662;2023-07-13T01:18:12;5.07;;;2.38;;
66437;SDS011;54537;47.972;11.662;2023-07-13T01:23:18;6.28;;;2.63;;
66437;SDS011;54537;47.972;11.662;2023-07-13T01:25:45;5.15;;;2.60;;
66437;SDS011;54537;47.972;11.662;2023-07-13T01:28:12;8.05;;;2.67;;
66437;SDS011;54537;47.972;11.662;2023-07-13T01:30:39;5.25;;;2.45;;
66437;SDS011;54537;47.972;11.662;2023-07-13T01:33:06;7.03;;;2.20;;
66437;SDS011;54537;47.972;11.662;2023-07-13T01:35:32;4.40;;;2.22;;
66437;SDS011;54537;47.972;11.662;2023-07-13T01:38:00;6.05;;;3.40;;
66437;SDS011;54537;47.972;11.662;2023-07-13T01:40:28;4.28;;;2.33;;
66437;SDS011;54537;47.972;11.662;2023-07-13T01:42:55;6.22;;;2.70;;
66437;SDS011;54537;47.972;11.662;2023-07-13T01:45:21;6.15;;;2.70;;
66437;SDS011;54537;47.972;11.662;2023-07-13T01:47:48;7.80;;;2.72;;
66437;SDS011;54537;47.972;11.662;2023-07-13T01:50:14;6.03;;;2.70;;
66437;SDS011;54537;47.972;11.662;2023-07-13T01:52:41;6.47;;;2.83;;
66437;SDS011;54537;47.972;11.662;2023-07-13T01:55:09;7.95;;;2.78;;
66437;SDS011;54537;47.972;11.662;2023-07-13T01:57:36;5.00;;;2.33;;
66437;SDS011;54537;47.972;11.662;2023-07-13T02:00:03;4.90;;;2.55;;
66437;SDS011;54537;47.972;11.662;2023-07-13T02:02:31;3.47;;;1.90;;
66437;SDS011;54537;47.972;11.662;2023-07-13T02:04:57;5.10;;;2.25;;
66437;SDS011;54537;47.972;11.662;2023-07-13T02:07:24;5.13;;;2.40;;
66437;SDS011;54537;47.972;11.662;2023-07-13T02:09:50;7.07;;;2.45;;
66437;SDS011;54537;47.972;11.662;2023-07-13T02:12:18;5.57;;;2.53;;
66437;SDS011;54537;47.972;11.662;2023-07-13T02:14:45;4.38;;;2.25;;
66437;SDS011;54537;47.972;11.662;2023-07-13T02:17:11;8.10;;;2.53;;
66437;SDS011;54537;47.972;11.662;2023-07-13T02:19:39;5.05;;;2.30;;
66437;SDS011;54537;47.972;11.662;2023-07-13T02:22:06;5.82;;;2.40;;
66437;SDS011;54537;47.972;11.662;2023-07-13T02:24:32;5.72;;;2.42;;
66437;SDS011;54537;47.972;11.662;2023-07-13T02:26:59;5.90;;;3.35;;
66437;SDS011;54537;47.972;11.662;2023-07-13T02:29:27;6.85;;;2.45;;
66437;SDS011;54537;47.972;11.662;2023-07-13T02:31:53;3.85;;;2.33;;
66437;SDS011;54537;47.972;11.662;2023-07-13T02:34:20;6.97;;;2.15;;
66437;SDS011;54537;47.972;11.662;2023-07-13T02:36:46;4.93;;;1.90;;
66437;SDS011;54537;47.972;11.662;2023-07-13T02:39:13;4.85;;;2.35;;
66437;SDS011;54537;47.972;11.662;2023-07-13T02:41:40;4.78;;;2.38;;
66437;SDS011;54537;47.972;11.662;2023-07-13T02:44:07;5.88;;;2.50;;
66437;SDS011;54537;47.972;11.662;2023-07-13T02:46:35;6.15;;;2.40;;
66437;SDS011;54537;47.972;11.662;2023-07-13T02:49:02;5.38;;;2.08;;
66437;SDS011;54537;47.972;11.662;2023-07-13T02:51:29;4.30;;;2.22;;
66437;SDS011;54537;47.972;11.662;2023-07-13T02:53:58;6.65;;;2.60;;
66437;SDS011;54537;47.972;11.662;2023-07-13T02:56:26;6.97;;;2.40;;
66437;SDS011;54537;47.972;11.662;2023-07-13T02:58:53;6.53;;;2.50;;
66437;SDS011;54537;47.972;11.662;2023-07-13T03:01:20;7.68;;;2.83;;
66437;SDS011;54537;47.972;11.662;2023-07-13T03:03:49;8.48;;;3.50;;
66437;SDS011;54537;47.972;11.662;2023-07-13T03:06:15;11.48;;;3.15;;
66437;SDS011;54537;47.972;11.662;2023-07-13T03:08:43;6.78;;;2.88;;
66437;SDS011;54537;47.972;11.662;2023-07-13T03:11:12;5.22;;;2.72;;
66437;SDS011;54537;47.972;11.662;2023-07-13T03:13:40;8.68;;;3.20;;
66437;SDS011;54537;47.972;11.662;2023-07-13T03:16:07;4.93;;;2.90;;
66437;SDS011;54537;47.972;11.662;2023-07-13T03:18:34;9.10;;;3.40;;
66437;SDS011;54537;47.972;11.662;2023-07-13T03:21:03;9.80;;;3.17;;
66437;SDS011;54537;47.972;11.662;2023-07-13T03:23:30;6.70;;;3.17;;
66437;SDS011;54537;47.972;11.662;2023-07-13T03:26:04;8.52;;;3.88;;
66437;SDS011;54537;47.972;11.662;2023-07-13T03:28:31;5.80;;;2.83;;
66437;SDS011;54537;47.972;11.662;2023-07-13T03:31:01;7.65;;;2.92;;
66437;SDS011;54537;47.972;11.662;2023-07-13T03:33:28;9.27;;;3.08;;
66437;SDS011;54537;47.972;11.662;2023-07-13T03:35:55;9.70;;;3.20;;
66437;SDS011;54537;47.972;11.662;2023-07-13T03:38:23;6.97;;;3.20;;
66437;SDS011;54537;47.972;11.662;2023-07-13T03:40:51;7.53;;;2.90;;
66437;SDS011;54537;47.972;11.662;2023-07-13T03:43:18;7.57;;;3.33;;
66437;SDS011;54537;47.972;11.662;2023-07-13T03:45:45;7.35;;;2.67;;
66437;SDS011;54537;47.972;11.662;2023-07-13T03:48:12;7.15;;;3.33;;
66437;SDS011;54537;47.972;11.662;2023-07-13T03:50:38;7.75;;;3.10;;
66437;SDS011;54537;47.972;11.662;2023-07-13T03:53:04;7.00;;;3.35;;
66437;SDS011;54537;47.972;11.662;2023-07-13T03:55:32;8.93;;;3.10;;
66437;SDS011;54537;47.972;11.662;2023-07-13T03:58:01;5.82;;;2.90;;
66437;SDS011;54537;47.972;11.662;2023-07-13T04:00:33;6.60;;;3.38;;
66437;SDS011;54537;47.972;11.662;2023-07-13T04:02:59;7.40;;;3.22;;
66437;SDS011;54537;47.972;11.662;2023-07-13T04:05:26;6.82;;;3.40;;
66437;SDS011;54537;47.972;11.662;2023-07-13T04:07:52;6.43;;;3.50;;
66437;SDS011;54537;47.972;11.662;2023-07-13T04:10:19;6.38;;;3.42;;
66437;SDS011;54537;47.972;11.662;2023-07-13T04:12:47;7.90;;;3.25;;
66437;SDS011;54537;47.972;11.662;2023-07-13T04:15:14;8.40;;;3.10;;
66437;SDS011;54537;47.972;11.662;2023-07-13T04:17:40;7.30;;;3.25;;
66437;SDS011;54537;47.972;11.662;2023-07-13T04:20:07;7.90;;;3.53;;
66437;SDS011;54537;47.972;11.662;2023-07-13T04:22:34;7.15;;;3.00;;
66437;SDS011;54537;47.972;11.662;2023-07-13T04:25:00;8.00;;;2.83;;
66437;SDS011;54537;47.972;11.662;2023-07-13T04:27:27;6.10;;;2.67;;
66437;SDS011;54537;47.972;11.662;2023-07-13T04:29:55;8.27;;;3.70;;
66437;SDS011;54537;47.972;11.662;2023-07-13T04:32:21;7.15;;;2.90;;
66437;SDS011;54537;47.972;11.662;2023-07-13T04:34:48;6.65;;;2.95;;
66437;SDS011;54537;47.972;11.662;2023-07-13T04:37:18;8.77;;;3.20;;
66437;SDS011;54537;47.972;11.662;2023-07-13T04:39:44;6.32;;;2.78;;
66437;SDS011;54537;47.972;11.662;2023-07-13T04:42:11;7.32;;;3.05;;
66437;SDS011;54537;47.972;11.662;2023-07-13T04:44:37;6.40;;;2.83;;
66437;SDS011;54537;47.972;11.662;2023-07-13T04:47:05;7.60;;;2.72;;
66437;SDS011;54537;47.972;11.662;2023-07-13T04:49:32;6.03;;;3.10;;
66437;SDS011;54537;47.972;11.662;2023-07-13T04:51:59;8.90;;;2.83;;
66437;SDS011;54537;47.972;11.662;2023-07-13T04:54:26;8.05;;;2.78;;
66437;SDS011;54537;47.972;11.662;2023-07-13T04:56:52;7.78;;;2.80;;
66437;SDS011;54537;47.972;11.662;2023-07-13T04:59:19;11.25;;;2.90;;
66437;SDS011;54537;47.972;11.662;2023-07-13T05:01:45;7.03;;;2.30;;
66437;SDS011;54537;47.972;11.662;2023-07-13T05:04:13;5.70;;;2.20;;
66437;SDS011;54537;47.972;11.662;2023-07-13T05:06:40;7.90;;;2.55;;
66437;SDS011;54537;47.972;11.662;2023-07-13T05:09:06;8.77;;;3.42;;
66437;SDS011;54537;47.972;11.662;2023-07-13T05:11:33;6.32;;;2.72;;
66437;SDS011;54537;47.972;11.662;2023-07-13T05:13:59;9.45;;;3.13;;
66437;SDS011;54537;47.972;11.662;2023-07-13T05:16:26;5.90;;;3.03;;
66437;SDS011;54537;47.972;11.662;2023-07-13T05:18:53;7.72;;;2.63;;
66437;SDS011;54537;47.972;11.662;2023-07-13T05:21:21;5.60;;;2.50;;
66437;SDS011;54537;47.972;11.662;2023-07-13T05:23:48;9.00;;;3.00;;
66437;SDS011;54537;47.972;11.662;2023-07-13T05:26:14;5.55;;;2.88;;
66437;SDS011;54537;47.972;11.662;2023-07-13T05:28:41;7.97;;;2.70;;
66437;SDS011;54537;47.972;11.662;2023-07-13T05:31:09;5.50;;;2.58;;
66437;SDS011;54537;47.972;11.662;2023-07-13T05:33:35;6.53;;;2.97;;
66437;SDS011;54537;47.972;11.662;2023-07-13T05:36:02;7.05;;;2.90;;
66437;SDS011;54537;47.972;11.662;2023-07-13T05:38:30;5.22;;;2.30;;
66437;SDS011;54537;47.972;11.662;2023-07-13T05:40:57;7.60;;;2.60;;
66437;SDS011;54537;47.972;11.662;2023-07-13T05:43:24;7.20;;;2.72;;
66437;SDS011;54537;47.972;11.662;2023-07-13T05:45:52;5.95;;;2.85;;
66437;SDS011;54537;47.972;11.662;2023-07-13T05:48:19;5.63;;;2.58;;
66437;SDS011;54537;47.972;11.662;2023-07-13T05:50:45;4.03;;;2.20;;
66437;SDS011;54537;47.972;11.662;2023-07-13T05:53:12;6.13;;;2.83;;
66437;SDS011;54537;47.972;11.662;2023-07-13T05:55:41;5.95;;;2.70;;
66437;SDS011;54537;47.972;11.662;2023-07-13T05:58:09;5.20;;;2.42;;
66437;SDS011;54537;47.972;11.662;2023-07-13T06:00:36;4.68;;;2.22;;
66437;SDS011;54537;47.972;11.662;2023-07-13T06:03:03;9.00;;;2.85;;
66437;SDS011;54537;47.972;11.662;2023-07-13T06:05:31;6.20;;;2.78;;
66437;SDS011;54537;47.972;11.662;2023-07-13T06:07:58;5.22;;;2.53;;
66437;SDS011;54537;47.972;11.662;2023-07-13T06:10:25;6.28;;;2.60;;
66437;SDS011;54537;47.972;11.662;2023-07-13T06:12:53;4.57;;;2.13;;
66437;SDS011;54537;47.972;11.662;2023-07-13T06:15:19;4.82;;;2.15;;
66437;SDS011;54537;47.972;11.662;2023-07-13T06:17:46;6.72;;;3.60;;
66437;SDS011;54537;47.972;11.662;2023-07-13T06:20:12;4.53;;;2.22;;
66437;SDS011;54537;47.972;11.662;2023-07-13T06:22:39;6.10;;;2.55;;
66437;SDS011;54537;47.972;11.662;2023-07-13T06:25:06;4.85;;;2.17;;
66437;SDS011;54537;47.972;11.662;2023-07-13T06:27:33;6.55;;;2.25;;
66437;SDS011;54537;47.972;11.662;2023-07-13T06:30:01;4.70;;;2.20;;
66437;SDS011;54537;47.972;11.662;2023-07-13T06:32:28;6.40;;;2.47;;
66437;SDS011;54537;47.972;11.662;2023-07-13T06:34:54;6.85;;;2.28;;
66437;SDS011;54537;47.972;11.662;2023-07-13T06:37:21;6.90;;;2.67;;
66437;SDS011;54537;47.972;11.662;2023-07-13T06:39:47;6.25;;;2.60;;
66437;SDS011;54537;47.972;11.662;2023-07-13T06:42:15;6.40;;;2.72;;
66437;SDS011;54537;47.972;11.662;2023-07-13T06:44:42;5.88;;;2.17;;
66437;SDS011;54537;47.972;11.662;2023-07-13T06:47:10;5.47;;;2.00;;
66437;SDS011;54537;47.972;11.662;2023-07-13T06:49:37;6.25;;;2.60;;
66437;SDS011;54537;47.972;11.662;2023-07-13T06:52:03;5.18;;;2.15;;
66437;SDS011;54537;47.972;11.662;2023-07-13T06:54:31;6.95;;;1.95;;
66437;SDS011;54537;47.972;11.662;2023-07-13T06:56:57;5.88;;;2.25;;
66437;SDS011;54537;47.972;11.662;2023-07-13T06:59:24;4.78;;;2.30;;
66437;SDS011;54537;47.972;11.662;2023-07-13T07:01:50;4.45;;;2.47;;
66437;SDS011;54537;47.972;11.662;2023-07-13T07:04:18;6.75;;;2.25;;
66437;SDS011;54537;47.972;11.662;2023-07-13T07:06:44;4.43;;;2.10;;
66437;SDS011;54537;47.972;11.662;2023-07-13T07:09:11;5.53;;;2.33;;
66437;SDS011;54537;47.972;11.662;2023-07-13T07:11:38;4.78;;;2.40;;
66437;SDS011;54537;47.972;11.662;2023-07-13T07:14:05;5.40;;;2.50;;
66437;SDS011;54537;47.972;11.662;2023-07-13T07:16:31;5.75;;;2.40;;
66437;SDS011;54537;47.972;11.662;2023-07-13T07:18:58;6.38;;;2.40;;
66437;SDS011;54537;47.972;11.662;2023-07-13T07:21:25;4.55;;;2.10;;
66437;SDS011;54537;47.972;11.662;2023-07-13T07:23:52;5.45;;;2.33;;
66437;SDS011;54537;47.972;11.662;2023-07-13T07:26:18;5.15;;;2.10;;
66437;SDS011;54537;47.972;11.662;2023-07-13T07:28:45;5.43;;;2.17;;
66437;SDS011;54537;47.972;11.662;2023-07-13T07:31:12;5.30;;;2.10;;
66437;SDS011;54537;47.972;11.662;2023-07-13T07:33:38;5.55;;;2.40;;
66437;SDS011;54537;47.972;11.662;2023-07-13T07:36:05;6.03;;;2.55;;
66437;SDS011;54537;47.972;11.662;2023-07-13T07:38:33;5.90;;;2.58;;
66437;SDS011;54537;47.972;11.662;2023-07-13T07:41:02;5.47;;;2.25;;
66437;SDS011;54537;47.972;11.662;2023-07-13T07:43:29;6.10;;;2.60;;
66437;SDS011;54537;47.972;11.662;2023-07-13T07:45:56;6.63;;;2.53;;
66437;SDS011;54537;47.972;11.662;2023-07-13T07:48:22;5.95;;;2.60;;
66437;SDS011;54537;47.972;11.662;2023-07-13T07:50:49;6.57;;;2.55;;
66437;SDS011;54537;47.972;11.662;2023-07-13T07:53:15;7.20;;;3.08;;
66437;SDS011;54537;47.972;11.662;2023-07-13T07:55:43;5.97;;;2.20;;
66437;SDS011;54537;47.972;11.662;2023-07-13T07:58:10;6.25;;;2.60;;
66437;SDS011;54537;47.972;11.662;2023-07-13T08:00:36;4.70;;;2.10;;
66437;SDS011;54537;47.972;11.662;2023-07-13T08:03:03;6.47;;;2.20;;
66437;SDS011;54537;47.972;11.662;2023-07-13T08:05:29;7.85;;;3.03;;
66437;SDS011;54537;47.972;11.662;2023-07-13T08:07:56;4.80;;;2.30;;
66437;SDS011;54537;47.972;11.662;2023-07-13T08:10:22;5.75;;;2.40;;
66437;SDS011;54537;47.972;11.662;2023-07-13T08:12:50;4.63;;;2.40;;
66437;SDS011;54537;47.972;11.662;2023-07-13T08:15:17;5.63;;;2.40;;
66437;SDS011;54537;47.972;11.662;2023-07-13T08:17:45;10.15;;;2.83;;
66437;SDS011;54537;47.972;11.662;2023-07-13T08:20:12;6.45;;;2.88;;
66437;SDS011;54537;47.972;11.662;2023-07-13T08:22:39;4.40;;;2.40;;
66437;SDS011;54537;47.972;11.662;2023-07-13T08:25:05;10.55;;;2.70;;
66437;SDS011;54537;47.972;11.662;2023-07-13T08:27:33;7.60;;;2.38;;
66437;SDS011;54537;47.972;11.662;2023-07-13T08:30:01;5.60;;;2.80;;
66437;SDS011;54537;47.972;11.662;2023-07-13T08:32:28;7.68;;;2.65;;
66437;SDS011;54537;47.972;11.662;2023-07-13T08:34:55;5.05;;;2.67;;
66437;SDS011;54537;47.972;11.662;2023-07-13T08:37:21;8.50;;;3.03;;
66437;SDS011;54537;47.972;11.662;2023-07-13T08:39:48;7.13;;;3.13;;
66437;SDS011;54537;47.972;11.662;2023-07-13T08:42:18;7.32;;;2.92;;
66437;SDS011;54537;47.972;11.662;2023-07-13T08:44:53;10.68;;;2.90;;
66437;SDS011;54537;47.972;11.662;2023-07-13T08:47:27;8.95;;;3.05;;
66437;SDS011;54537;47.972;11.662;2023-07-13T08:49:56;9.15;;;3.28;;
66437;SDS011;54537;47.972;11.662;2023-07-13T08:52:26;8.40;;;3.15;;
66437;SDS011;54537;47.972;11.662;2023-07-13T08:54:56;7.13;;;2.83;;
66437;SDS011;54537;47.972;11.662;2023-07-13T08:57:27;11.35;;;2.70;;
66437;SDS011;54537;47.972;11.662;2023-07-13T08:59:58;6.88;;;2.80;;
66437;SDS011;54537;47.972;11.662;2023-07-13T09:02:33;4.68;;;2.63;;
66437;SDS011;54537;47.972;11.662;2023-07-13T09:05:08;5.22;;;2.00;;
66437;SDS011;54537;47.972;11.662;2023-07-13T09:07:40;4.35;;;1.95;;
66437;SDS011;54537;47.972;11.662;2023-07-13T09:10:14;5.68;;;2.15;;
66437;SDS011;54537;47.972;11.662;2023-07-13T09:12:45;5.47;;;2.42;;
66437;SDS011;54537;47.972;11.662;2023-07-13T09:15:21;6.53;;;2.40;;
66437;SDS011;54537;47.972;11.662;2023-07-13T09:17:52;4.30;;;2.17;;
66437;SDS011;54537;47.972;11.662;2023-07-13T09:20:21;4.90;;;1.95;;
66437;SDS011;54537;47.972;11.662;2023-07-13T09:22:50;5.65;;;2.22;;
66437;SDS011;54537;47.972;11.662;2023-07-13T09:25:21;9.63;;;2.30;;
66437;SDS011;54537;47.972;11.662;2023-07-13T09:27:50;3.95;;;1.90;;
66437;SDS011;54537;47.972;11.662;2023-07-13T09:30:28;3.85;;;1.75;;
66437;SDS011;54537;47.972;11.662;2023-07-13T09:33:01;9.65;;;2.38;;
66437;SDS011;54537;47.972;11.662;2023-07-13T09:35:28;4.25;;;2.13;;
66437;SDS011;54537;47.972;11.662;2023-07-13T09:37:59;5.47;;;2.13;;
66437;SDS011;54537;47.972;11.662;2023-07-13T09:40:35;6.85;;;2.15;;
66437;SDS011;54537;47.972;11.662;2023-07-13T09:43:15;7.05;;;2.00;;
66437;SDS011;54537;47.972;11.662;2023-07-13T09:45:44;6.57;;;1.95;;
66437;SDS011;54537;47.972;11.662;2023-07-13T09:48:14;5.53;;;1.98;;
66437;SDS011;54537;47.972;11.662;2023-07-13T09:50:42;6.32;;;2.20;;
66437;SDS011;54537;47.972;11.662;2023-07-13T09:53:13;6.38;;;2.50;;
66437;SDS011;54537;47.972;11.662;2023-07-13T09:55:41;4.68;;;1.90;;
66437;SDS011;54537;47.972;11.662;2023-07-13T09:58:09;4.95;;;2.30;;
66437;SDS011;54537;47.972;11.662;2023-07-13T10:00:37;6.63;;;2.20;;
66437;SDS011;54537;47.972;11.662;2023-07-13T10:03:05;9.07;;;2.20;;
66437;SDS011;54537;47.972;11.662;2023-07-13T10:05:42;5.05;;;2.00;;
66437;SDS011;54537;47.972;11.662;2023-07-13T10:08:20;4.10;;;1.98;;
66437;SDS011;54537;47.972;11.662;2023-07-13T10:10:52;5.07;;;2.45;;
66437;SDS011;54537;47.972;11.662;2023-07-13T10:15:54;6.78;;;2.30;;
66437;SDS011;54537;47.972;11.662;2023-07-13T10:18:22;4.82;;;1.77;;
66437;SDS011;54537;47.972;11.662;2023-07-13T10:20:51;7.75;;;1.70;;
66437;SDS011;54537;47.972;11.662;2023-07-13T10:23:21;3.58;;;2.08;;
66437;SDS011;54537;47.972;11.662;2023-07-13T10:25:50;5.53;;;1.80;;
66437;SDS011;54537;47.972;11.662;2023-07-13T10:28:20;4.32;;;2.35;;
66437;SDS011;54537;47.972;11.662;2023-07-13T10:30:53;3.67;;;1.80;;
66437;SDS011;54537;47.972;11.662;2023-07-13T10:33:22;5.93;;;2.00;;
66437;SDS011;54537;47.972;11.662;2023-07-13T10:35:48;6.13;;;2.20;;
66437;SDS011;54537;47.972;11.662;2023-07-13T10:38:19;5.28;;;2.15;;
66437;SDS011;54537;47.972;11.662;2023-07-13T10:40:51;4.38;;;1.80;;
66437;SDS011;54537;47.972;11.662;2023-07-13T10:43:23;4.32;;;1.95;;
66437;SDS011;54537;47.972;11.662;2023-07-13T10:45:52;5.05;;;2.35;;
66437;SDS011;54537;47.972;11.662;2023-07-13T10:48:19;5.88;;;1.90;;
66437;SDS011;54537;47.972;11.662;2023-07-13T10:50:48;4.07;;;2.08;;
66437;SDS011;54537;47.972;11.662;2023-07-13T10:53:20;5.32;;;2.00;;
66437;SDS011;54537;47.972;11.662;2023-07-13T10:55:55;7.90;;;2.20;;
66437;SDS011;54537;47.972;11.662;2023-07-13T10:58:28;5.00;;;1.75;;
66437;SDS011;54537;47.972;11.662;2023-07-13T11:00:56;5.63;;;1.75;;
66437;SDS011;54537;47.972;11.662;2023-07-13T11:03:27;7.57;;;2.00;;
66437;SDS011;54537;47.972;11.662;2023-07-13T11:06:04;4.57;;;1.63;;
66437;SDS011;54537;47.972;11.662;2023-07-13T11:08:37;3.63;;;1.42;;
66437;SDS011;54537;47.972;11.662;2023-07-13T11:11:31;4.30;;;1.63;;
66437;SDS011;54537;47.972;11.662;2023-07-13T11:14:01;4.70;;;1.88;;
66437;SDS011;54537;47.972;11.662;2023-07-13T11:19:24;4.38;;;1.80;;
66437;SDS011;54537;47.972;11.662;2023-07-13T11:22:11;3.33;;;1.60;;
66437;SDS011;54537;47.972;11.662;2023-07-13T11:27:36;3.28;;;1.40;;
66437;SDS011;54537;47.972;11.662;2023-07-13T11:30:09;5.28;;;1.42;;
66437;SDS011;54537;47.972;11.662;2023-07-13T11:33:09;4.50;;;1.52;;
66437;SDS011;54537;47.972;11.662;2023-07-13T11:35:41;3.70;;;1.42;;
66437;SDS011;54537;47.972;11.662;2023-07-13T11:38:14;4.13;;;1.55;;
66437;SDS011;54537;47.972;11.662;2023-07-13T11:40:44;4.07;;;1.17;;
66437;SDS011;54537;47.972;11.662;2023-07-13T11:43:12;4.00;;;1.35;;
66437;SDS011;54537;47.972;11.662;2023-07-13T11:45:40;4.85;;;1.63;;
66437;SDS011;54537;47.972;11.662;2023-07-13T11:48:17;3.72;;;1.27;;
66437;SDS011;54537;47.972;11.662;2023-07-13T11:50:49;3.70;;;1.23;;
66437;SDS011;54537;47.972;11.662;2023-07-13T11:53:17;4.18;;;1.20;;
66437;SDS011;54537;47.972;11.662;2023-07-13T11:55:45;3.97;;;1.10;;
66437;SDS011;54537;47.972;11.662;2023-07-13T11:58:13;3.33;;;1.10;;
66437;SDS011;54537;47.972;11.662;2023-07-13T12:00:40;3.05;;;1.30;;
66437;SDS011;54537;47.972;11.662;2023-07-13T12:03:07;3.88;;;1.23;;
66437;SDS011;54537;47.972;11.662;2023-07-13T12:05:34;4.47;;;1.35;;
66437;SDS011;54537;47.972;11.662;2023-07-13T12:08:08;3.05;;;1.30;;
66437;SDS011;54537;47.972;11.662;2023-07-13T12:10:36;2.97;;;1.00;;
66437;SDS011;54537;47.972;11.662;2023-07-13T12:13:04;4.13;;;1.40;;
66437;SDS011;54537;47.972;11.662;2023-07-13T12:15:34;3.80;;;1.17;;
66437;SDS011;54537;47.972;11.662;2023-07-13T12:18:09;4.65;;;1.50;;
66437;SDS011;54537;47.972;11.662;2023-07-13T12:20:38;6.35;;;1.75;;
66437;SDS011;54537;47.972;11.662;2023-07-13T12:23:05;5.65;;;1.42;;
66437;SDS011;54537;47.972;11.662;2023-07-13T12:25:32;3.20;;;1.30;;
66437;SDS011;54537;47.972;11.662;2023-07-13T12:27:58;4.35;;;1.70;;
66437;SDS011;54537;47.972;11.662;2023-07-13T12:30:27;4.57;;;1.50;;
66437;SDS011;54537;47.972;11.662;2023-07-13T12:32:56;3.33;;;1.90;;
66437;SDS011;54537;47.972;11.662;2023-07-13T12:35:23;5.65;;;1.67;;
66437;SDS011;54537;47.972;11.662;2023-07-13T12:37:50;3.35;;;1.52;;
66437;SDS011;54537;47.972;11.662;2023-07-13T12:40:18;3.22;;;1.40;;
66437;SDS011;54537;47.972;11.662;2023-07-13T12:42:47;5.40;;;1.77;;
66437;SDS011;54537;47.972;11.662;2023-07-13T12:45:17;6.63;;;1.70;;
66437;SDS011;54537;47.972;11.662;2023-07-13T12:47:48;3.88;;;1.73;;
66437;SDS011;54537;47.972;11.662;2023-07-13T12:52:43;5.07;;;1.70;;
66437;SDS011;54537;47.972;11.662;2023-07-13T12:55:11;4.63;;;2.10;;
66437;SDS011;54537;47.972;11.662;2023-07-13T12:57:41;3.47;;;1.88;;
66437;SDS011;54537;47.972;11.662;2023-07-13T13:00:18;4.15;;;1.60;;
66437;SDS011;54537;47.972;11.662;2023-07-13T13:02:51;5.38;;;1.70;;
66437;SDS011;54537;47.972;11.662;2023-07-13T13:05:20;5.07;;;1.35;;
66437;SDS011;54537;47.972;11.662;2023-07-13T13:07:48;4.03;;;1.20;;
66437;SDS011;54537;47.972;11.662;2023-07-13T13:10:15;5.55;;;1.58;;
66437;SDS011;54537;47.972;11.662;2023-07-13T13:12:41;2.65;;;1.38;;
66437;SDS011;54537;47.972;11.662;2023-07-13T13:15:08;4.70;;;1.92;;
66437;SDS011;54537;47.972;11.662;2023-07-13T13:17:36;7.80;;;1.60;;
66437;SDS011;54537;47.972;11.662;2023-07-13T13:20:11;7.38;;;1.52;;
66437;SDS011;54537;47.972;11.662;2023-07-13T13:22:41;5.85;;;1.90;;
66437;SDS011;54537;47.972;11.662;2023-07-13T13:25:08;2.80;;;1.60;;
66437;SDS011;54537;47.972;11.662;2023-07-13T13:27:36;5.60;;;2.05;;
66437;SDS011;54537;47.972;11.662;2023-07-13T13:30:03;4.25;;;1.60;;
66437;SDS011;54537;47.972;11.662;2023-07-13T13:35:00;5.32;;;1.55;;
66437;SDS011;54537;47.972;11.662;2023-07-13T13:37:28;4.20;;;1.50;;
66437;SDS011;54537;47.972;11.662;2023-07-13T13:39:54;2.90;;;1.55;;
66437;SDS011;54537;47.972;11.662;2023-07-13T13:42:21;4.50;;;1.42;;
66437;SDS011;54537;47.972;11.662;2023-07-13T13:44:49;4.95;;;1.70;;
66437;SDS011;54537;47.972;11.662;2023-07-13T13:47:20;3.83;;;1.70;;
66437;SDS011;54537;47.972;11.662;2023-07-13T13:49:53;3.40;;;1.90;;
66437;SDS011;54537;47.972;11.662;2023-07-13T13:52:19;3.22;;;1.48;;
66437;SDS011;54537;47.972;11.662;2023-07-13T13:54:47;4.22;;;1.88;;
66437;SDS011;54537;47.972;11.662;2023-07-13T13:57:14;5.18;;;1.50;;
66437;SDS011;54537;47.972;11.662;2023-07-13T13:59:40;4.40;;;2.10;;
66437;SDS011;54537;47.972;11.662;2023-07-13T14:02:11;4.53;;;1.83;;
66437;SDS011;54537;47.972;11.662;2023-07-13T14:04:49;4.10;;;1.70;;
66437;SDS011;54537;47.972;11.662;2023-07-13T14:07:17;7.78;;;1.70;;
66437;SDS011;54537;47.972;11.662;2023-07-13T14:09:44;7.03;;;1.70;;
66437;SDS011;54537;47.972;11.662;2023-07-13T14:12:11;5.13;;;1.65;;
66437;SDS011;54537;47.972;11.662;2023-07-13T14:14:38;4.28;;;1.90;;
66437;SDS011;54537;47.972;11.662;2023-07-13T14:17:08;4.25;;;1.52;;
66437;SDS011;54537;47.972;11.662;2023-07-13T14:19:41;6.00;;;1.70;;
66437;SDS011;54537;47.972;11.662;2023-07-13T14:22:08;2.97;;;1.35;;
66437;SDS011;54537;47.972;11.662;2023-07-13T14:24:34;3.63;;;1.50;;
66437;SDS011;54537;47.972;11.662;2023-07-13T14:27:01;5.32;;;1.63;;
66437;SDS011;54537;47.972;11.662;2023-07-13T14:29:29;5.28;;;1.73;;
66437;SDS011;54537;47.972;11.662;2023-07-13T14:31:57;3.17;;;1.60;;
66437;SDS011;54537;47.972;11.662;2023-07-13T14:34:23;3.90;;;1.40;;
66437;SDS011;54537;47.972;11.662;2023-07-13T14:36:50;5.07;;;1.60;;
66437;SDS011;54537;47.972;11.662;2023-07-13T14:39:17;3.65;;;1.45;;
66437;SDS011;54537;47.972;11.662;2023-07-13T14:41:44;2.67;;;1.20;;
66437;SDS011;54537;47.972;11.662;2023-07-13T14:44:11;4.53;;;2.00;;
66437;SDS011;54537;47.972;11.662;2023-07-13T14:46:39;2.25;;;1.35;;
66437;SDS011;54537;47.972;11.662;2023-07-13T14:49:09;8.15;;;1.80;;
66437;SDS011;54537;47.972;11.662;2023-07-13T14:51:41;3.83;;;1.55;;
66437;SDS011;54537;47.972;11.662;2023-07-13T14:54:08;4.32;;;1.50;;
66437;SDS011;54537;47.972;11.662;2023-07-13T14:56:34;4.25;;;1.40;;
66437;SDS011;54537;47.972;11.662;2023-07-13T14:59:01;2.25;;;1.20;;